sensor_id;sensor_type;location;lat;lon;timestamp;pressure;altitude;pressure_sealevel;temperature;humidity
75543;BME280;64129;53.508;10.476;2022-12-18T00:01:29;102508.78;;;-4.84;77.83
75543;BME280;64129;53.508;10.476;2022-12-18T00:03:57;102501.91;;;-4.84;77.79
75543;BME280;64129;53.508;10.476;2022-12-18T00:06:25;102503.31;;;-4.76;77.40
75543;BME280;64129;53.508;10.476;2022-12-18T00:08:53;102511.47;;;-4.83;77.05
75543;BME280;64129;53.508;10.476;2022-12-18T00:11:22;102511.19;;;-4.74;77.05
75543;BME280;64129;53.508;10.476;2022-12-18T00:13:49;102511.66;;;-4.80;76.71
75543;BME280;64129;53.508;10.476;2022-12-18T00:16:21;102511.66;;;-4.80;76.08
75543;BME280;64129;53.508;10.476;2022-12-18T00:18:50;102514.22;;;-4.93;76.13
75543;BME280;64129;53.508;10.476;2022-12-18T00:21:18;102515.00;;;-4.94;76.17
75543;BME280;64129;53.508;10.476;2022-12-18T00:23:46;102517.19;;;-5.00;75.86
75543;BME280;64129;53.508;10.476;2022-12-18T00:28:44;102506.03;;;-4.99;75.58
75543;BME280;64129;53.508;10.476;2022-12-18T00:31:16;102508.59;;;-5.12;75.33
75543;BME280;64129;53.508;10.476;2022-12-18T00:33:43;102514.56;;;-5.13;75.62
75543;BME280;64129;53.508;10.476;2022-12-18T00:36:21;102515.25;;;-5.16;75.39
75543;BME280;64129;53.508;10.476;2022-12-18T00:38:50;102510.13;;;-5.27;75.18
75543;BME280;64129;53.508;10.476;2022-12-18T00:41:18;102523.88;;;-5.28;75.42
75543;BME280;64129;53.508;10.476;2022-12-18T00:44:04;102523.13;;;-5.39;75.43
75543;BME280;64129;53.508;10.476;2022-12-18T00:46:31;102530.00;;;-5.40;75.44
75543;BME280;64129;53.508;10.476;2022-12-18T00:48:59;102521.97;;;-5.31;75.92
75543;BME280;64129;53.508;10.476;2022-12-18T00:51:26;102532.22;;;-5.32;75.80
75543;BME280;64129;53.508;10.476;2022-12-18T00:53:53;102543.31;;;-5.47;77.17
75543;BME280;64129;53.508;10.476;2022-12-18T00:56:23;102547.16;;;-5.28;77.77
75543;BME280;64129;53.508;10.476;2022-12-18T00:58:51;102548.75;;;-5.30;77.30
75543;BME280;64129;53.508;10.476;2022-12-18T01:01:18;102540.28;;;-5.28;77.18
75543;BME280;64129;53.508;10.476;2022-12-18T01:03:45;102532.00;;;-5.36;77.13
75543;BME280;64129;53.508;10.476;2022-12-18T01:06:14;102534.22;;;-5.28;77.57
75543;BME280;64129;53.508;10.476;2022-12-18T01:08:41;102526.22;;;-5.20;78.39
75543;BME280;64129;53.508;10.476;2022-12-18T01:11:13;102531.03;;;-5.24;77.88
75543;BME280;64129;53.508;10.476;2022-12-18T01:13:41;102538.03;;;-5.23;77.67
75543;BME280;64129;53.508;10.476;2022-12-18T01:16:08;102544.28;;;-5.08;77.48
75543;BME280;64129;53.508;10.476;2022-12-18T01:18:35;102540.59;;;-5.23;77.89
75543;BME280;64129;53.508;10.476;2022-12-18T01:21:09;102544.34;;;-5.20;77.53
75543;BME280;64129;53.508;10.476;2022-12-18T01:23:36;102545.66;;;-5.13;76.62
75543;BME280;64129;53.508;10.476;2022-12-18T01:26:09;102551.66;;;-5.26;76.38
75543;BME280;64129;53.508;10.476;2022-12-18T01:28:36;102548.75;;;-5.30;77.47
75543;BME280;64129;53.508;10.476;2022-12-18T01:31:17;102549.63;;;-5.18;77.35
75543;BME280;64129;53.508;10.476;2022-12-18T01:33:49;102554.09;;;-5.41;78.20
75543;BME280;64129;53.508;10.476;2022-12-18T01:36:28;102552.50;;;-5.39;78.14
75543;BME280;64129;53.508;10.476;2022-12-18T01:38:55;102540.97;;;-5.30;78.19
75543;BME280;64129;53.508;10.476;2022-12-18T01:41:25;102536.97;;;-5.39;77.65
75543;BME280;64129;53.508;10.476;2022-12-18T01:43:57;102521.44;;;-5.39;78.75
75543;BME280;64129;53.508;10.476;2022-12-18T01:46:27;102516.25;;;-5.39;78.03
75543;BME280;64129;53.508;10.476;2022-12-18T01:49:00;102523.25;;;-5.38;78.72
75543;BME280;64129;53.508;10.476;2022-12-18T01:51:28;102524.25;;;-5.36;78.41
75543;BME280;64129;53.508;10.476;2022-12-18T01:53:57;102525.56;;;-5.29;78.19
75543;BME280;64129;53.508;10.476;2022-12-18T01:56:24;102525.06;;;-5.23;78.24
75543;BME280;64129;53.508;10.476;2022-12-18T01:58:58;102522.56;;;-5.10;77.75
75543;BME280;64129;53.508;10.476;2022-12-18T02:01:26;102530.84;;;-5.27;78.20
75543;BME280;64129;53.508;10.476;2022-12-18T02:03:53;102536.66;;;-5.18;78.26
75543;BME280;64129;53.508;10.476;2022-12-18T02:06:33;102538.97;;;-5.35;77.97
75543;BME280;64129;53.508;10.476;2022-12-18T02:09:21;102544.56;;;-5.28;77.76
75543;BME280;64129;53.508;10.476;2022-12-18T02:12:16;102542.56;;;-5.32;77.66
75543;BME280;64129;53.508;10.476;2022-12-18T02:17:22;102552.50;;;-5.39;77.69
75543;BME280;64129;53.508;10.476;2022-12-18T02:28:00;102565.03;;;-5.45;76.61
75543;BME280;64129;53.508;10.476;2022-12-18T02:30:31;102560.22;;;-5.52;77.73
75543;BME280;64129;53.508;10.476;2022-12-18T02:33:01;102568.41;;;-5.46;76.71
75543;BME280;64129;53.508;10.476;2022-12-18T02:35:31;102562.66;;;-5.42;76.40
75543;BME280;64129;53.508;10.476;2022-12-18T02:38:01;102570.66;;;-5.50;76.36
75543;BME280;64129;53.508;10.476;2022-12-18T02:40:32;102569.22;;;-5.58;76.50
75543;BME280;64129;53.508;10.476;2022-12-18T02:43:10;102571.38;;;-5.65;75.79
75543;BME280;64129;53.508;10.476;2022-12-18T02:45:56;102577.81;;;-5.71;75.18
75543;BME280;64129;53.508;10.476;2022-12-18T02:48:29;102582.19;;;-5.70;75.60
75543;BME280;64129;53.508;10.476;2022-12-18T02:51:17;102588.16;;;-5.71;75.01
75543;BME280;64129;53.508;10.476;2022-12-18T02:54:06;102584.56;;;-5.73;74.90
75543;BME280;64129;53.508;10.476;2022-12-18T02:56:39;102594.78;;;-5.75;74.51
75543;BME280;64129;53.508;10.476;2022-12-18T02:59:14;102587.50;;;-5.80;74.90
75543;BME280;64129;53.508;10.476;2022-12-18T03:02:16;102585.94;;;-5.90;74.70
75543;BME280;64129;53.508;10.476;2022-12-18T03:04:58;102586.88;;;-5.89;74.40
75543;BME280;64129;53.508;10.476;2022-12-18T03:07:38;102583.25;;;-5.91;74.34
75543;BME280;64129;53.508;10.476;2022-12-18T03:10:12;102573.81;;;-5.91;74.23
75543;BME280;64129;53.508;10.476;2022-12-18T03:12:45;102581.03;;;-6.10;74.72
75543;BME280;64129;53.508;10.476;2022-12-18T03:15:20;102568.88;;;-6.00;74.34
75543;BME280;64129;53.508;10.476;2022-12-18T03:17:59;102580.78;;;-6.02;74.35
75543;BME280;64129;53.508;10.476;2022-12-18T03:20:31;102580.78;;;-6.25;74.18
75543;BME280;64129;53.508;10.476;2022-12-18T03:23:07;102583.63;;;-6.22;74.36
75543;BME280;64129;53.508;10.476;2022-12-18T03:25:39;102574.50;;;-6.29;74.19
75543;BME280;64129;53.508;10.476;2022-12-18T03:28:10;102579.00;;;-6.26;74.34
75543;BME280;64129;53.508;10.476;2022-12-18T03:30:40;102580.69;;;-6.38;74.10
75543;BME280;64129;53.508;10.476;2022-12-18T03:33:08;102587.66;;;-6.37;74.40
75543;BME280;64129;53.508;10.476;2022-12-18T03:35:42;102586.75;;;-6.38;74.60
75543;BME280;64129;53.508;10.476;2022-12-18T03:38:11;102582.72;;;-6.46;74.55
75543;BME280;64129;53.508;10.476;2022-12-18T03:40:48;102583.81;;;-6.42;74.08
75543;BME280;64129;53.508;10.476;2022-12-18T03:46:08;102599.44;;;-6.52;73.92
75543;BME280;64129;53.508;10.476;2022-12-18T03:48:44;102597.16;;;-6.60;74.34
75543;BME280;64129;53.508;10.476;2022-12-18T03:51:39;102594.28;;;-6.52;74.32
75543;BME280;64129;53.508;10.476;2022-12-18T03:54:11;102601.81;;;-6.55;73.88
75543;BME280;64129;53.508;10.476;2022-12-18T03:56:47;102600.78;;;-6.57;73.84
75543;BME280;64129;53.508;10.476;2022-12-18T03:59:15;102589.06;;;-6.64;74.47
75543;BME280;64129;53.508;10.476;2022-12-18T04:01:46;102593.00;;;-6.69;74.81
75543;BME280;64129;53.508;10.476;2022-12-18T04:04:16;102593.66;;;-6.72;74.36
75543;BME280;64129;53.508;10.476;2022-12-18T04:06:46;102594.09;;;-6.77;74.18
75543;BME280;64129;53.508;10.476;2022-12-18T04:09:14;102590.63;;;-6.78;74.54
75543;BME280;64129;53.508;10.476;2022-12-18T04:11:45;102583.88;;;-6.76;74.49
75543;BME280;64129;53.508;10.476;2022-12-18T04:14:14;102583.78;;;-6.77;74.46
75543;BME280;64129;53.508;10.476;2022-12-18T04:16:43;102603.31;;;-6.81;74.72
75543;BME280;64129;53.508;10.476;2022-12-18T04:19:13;102593.09;;;-6.79;75.12
75543;BME280;64129;53.508;10.476;2022-12-18T04:21:42;102592.66;;;-6.74;75.38
75543;BME280;64129;53.508;10.476;2022-12-18T04:24:10;102584.78;;;-6.75;75.39
75543;BME280;64129;53.508;10.476;2022-12-18T04:26:41;102574.22;;;-6.90;75.78
75543;BME280;64129;53.508;10.476;2022-12-18T04:29:12;102580.28;;;-6.89;76.29
75543;BME280;64129;53.508;10.476;2022-12-18T04:31:39;102576.66;;;-6.92;76.30
75543;BME280;64129;53.508;10.476;2022-12-18T04:34:05;102576.47;;;-6.83;76.78
75543;BME280;64129;53.508;10.476;2022-12-18T04:36:38;102577.81;;;-6.88;76.94
75543;BME280;64129;53.508;10.476;2022-12-18T04:39:05;102571.06;;;-6.86;76.87
75543;BME280;64129;53.508;10.476;2022-12-18T04:41:32;102580.72;;;-6.83;76.51
75543;BME280;64129;53.508;10.476;2022-12-18T04:43:59;102595.94;;;-6.98;77.27
75543;BME280;64129;53.508;10.476;2022-12-18T04:46:25;102597.00;;;-6.84;76.86
75543;BME280;64129;53.508;10.476;2022-12-18T04:48:52;102594.31;;;-6.86;76.19
75543;BME280;64129;53.508;10.476;2022-12-18T04:51:18;102602.72;;;-6.88;75.62
75543;BME280;64129;53.508;10.476;2022-12-18T04:53:50;102600.28;;;-6.75;75.44
75543;BME280;64129;53.508;10.476;2022-12-18T04:56:16;102610.16;;;-6.81;75.38
75543;BME280;64129;53.508;10.476;2022-12-18T04:58:44;102600.25;;;-6.87;75.68
75543;BME280;64129;53.508;10.476;2022-12-18T05:01:12;102595.69;;;-7.01;76.24
75543;BME280;64129;53.508;10.476;2022-12-18T05:03:39;102598.63;;;-6.97;75.94
75543;BME280;64129;53.508;10.476;2022-12-18T05:06:07;102591.00;;;-6.95;75.74
75543;BME280;64129;53.508;10.476;2022-12-18T05:08:34;102598.28;;;-7.01;75.85
75543;BME280;64129;53.508;10.476;2022-12-18T05:11:06;102602.97;;;-7.07;75.92
75543;BME280;64129;53.508;10.476;2022-12-18T05:13:33;102605.44;;;-6.87;75.90
75543;BME280;64129;53.508;10.476;2022-12-18T05:16:02;102610.34;;;-6.90;74.98
75543;BME280;64129;53.508;10.476;2022-12-18T05:18:29;102614.19;;;-6.85;74.98
75543;BME280;64129;53.508;10.476;2022-12-18T05:20:56;102622.72;;;-6.86;74.82
75543;BME280;64129;53.508;10.476;2022-12-18T05:23:23;102624.28;;;-6.88;74.81
75543;BME280;64129;53.508;10.476;2022-12-18T05:25:55;102626.50;;;-6.93;74.67
75543;BME280;64129;53.508;10.476;2022-12-18T05:28:23;102628.44;;;-6.90;74.09
75543;BME280;64129;53.508;10.476;2022-12-18T05:30:55;102632.63;;;-7.02;74.30
75543;BME280;64129;53.508;10.476;2022-12-18T05:33:23;102634.44;;;-7.01;74.20
75543;BME280;64129;53.508;10.476;2022-12-18T05:35:51;102628.47;;;-7.00;73.63
75543;BME280;64129;53.508;10.476;2022-12-18T05:38:19;102626.91;;;-6.98;74.01
75543;BME280;64129;53.508;10.476;2022-12-18T05:40:45;102628.47;;;-7.00;74.30
75543;BME280;64129;53.508;10.476;2022-12-18T05:43:13;102634.28;;;-7.14;74.50
75543;BME280;64129;53.508;10.476;2022-12-18T05:45:43;102636.31;;;-7.10;74.58
75543;BME280;64129;53.508;10.476;2022-12-18T05:48:13;102635.69;;;-6.96;73.93
75543;BME280;64129;53.508;10.476;2022-12-18T05:50:42;102641.00;;;-7.16;74.18
75543;BME280;64129;53.508;10.476;2022-12-18T05:53:10;102640.69;;;-7.09;74.28
75543;BME280;64129;53.508;10.476;2022-12-18T05:55:38;102641.22;;;-7.13;74.43
75543;BME280;64129;53.508;10.476;2022-12-18T05:58:07;102651.91;;;-7.31;74.52
75543;BME280;64129;53.508;10.476;2022-12-18T06:00:37;102650.59;;;-7.26;75.12
75543;BME280;64129;53.508;10.476;2022-12-18T06:03:08;102651.09;;;-7.19;74.77
75543;BME280;64129;53.508;10.476;2022-12-18T06:05:41;102642.31;;;-7.21;74.28
75543;BME280;64129;53.508;10.476;2022-12-18T06:08:10;102635.34;;;-7.22;75.12
75543;BME280;64129;53.508;10.476;2022-12-18T06:10:37;102625.94;;;-7.22;74.67
75543;BME280;64129;53.508;10.476;2022-12-18T06:13:04;102627.97;;;-7.18;74.33
75543;BME280;64129;53.508;10.476;2022-12-18T06:15:31;102632.47;;;-7.15;74.29
75543;BME280;64129;53.508;10.476;2022-12-18T06:17:57;102636.38;;;-7.20;74.40
75543;BME280;64129;53.508;10.476;2022-12-18T06:20:24;102642.09;;;-7.25;74.13
75543;BME280;64129;53.508;10.476;2022-12-18T06:22:52;102640.31;;;-7.36;74.46
75543;BME280;64129;53.508;10.476;2022-12-18T06:25:18;102650.59;;;-7.26;74.10
75543;BME280;64129;53.508;10.476;2022-12-18T06:27:47;102651.13;;;-7.30;74.59
75543;BME280;64129;53.508;10.476;2022-12-18T06:30:14;102650.09;;;-7.32;74.47
75543;BME280;64129;53.508;10.476;2022-12-18T06:32:40;102656.13;;;-7.21;73.99
75543;BME280;64129;53.508;10.476;2022-12-18T06:35:07;102658.03;;;-7.18;74.17
75543;BME280;64129;53.508;10.476;2022-12-18T06:37:34;102659.59;;;-7.20;73.74
75543;BME280;64129;53.508;10.476;2022-12-18T06:40:00;102658.03;;;-7.18;74.25
75543;BME280;64129;53.508;10.476;2022-12-18T06:42:28;102669.28;;;-7.18;73.67
75543;BME280;64129;53.508;10.476;2022-12-18T06:44:54;102676.53;;;-7.24;73.92
75543;BME280;64129;53.508;10.476;2022-12-18T06:47:21;102677.69;;;-7.31;74.05
75543;BME280;64129;53.508;10.476;2022-12-18T06:49:47;102680.09;;;-7.44;73.76
75543;BME280;64129;53.508;10.476;2022-12-18T06:52:17;102686.44;;;-7.50;73.90
75543;BME280;64129;53.508;10.476;2022-12-18T06:54:43;102695.22;;;-7.48;74.17
75543;BME280;64129;53.508;10.476;2022-12-18T06:57:10;102687.72;;;-7.45;74.40
75543;BME280;64129;53.508;10.476;2022-12-18T06:59:36;102687.09;;;-7.53;73.68
75543;BME280;64129;53.508;10.476;2022-12-18T07:02:03;102688.91;;;-7.52;73.78
75543;BME280;64129;53.508;10.476;2022-12-18T07:04:30;102688.63;;;-7.45;73.84
75543;BME280;64129;53.508;10.476;2022-12-18T07:06:57;102694.44;;;-7.47;73.75
75543;BME280;64129;53.508;10.476;2022-12-18T07:09:24;102694.31;;;-7.49;73.97
75543;BME280;64129;53.508;10.476;2022-12-18T07:11:51;102695.41;;;-7.67;74.38
75543;BME280;64129;53.508;10.476;2022-12-18T07:14:17;102693.34;;;-7.61;74.25
75543;BME280;64129;53.508;10.476;2022-12-18T07:16:44;102684.91;;;-7.48;74.14
75543;BME280;64129;53.508;10.476;2022-12-18T07:19:10;102681.97;;;-7.63;74.03
75543;BME280;64129;53.508;10.476;2022-12-18T07:21:37;102673.69;;;-7.49;74.71
75543;BME280;64129;53.508;10.476;2022-12-18T07:24:04;102677.09;;;-7.60;74.55
75543;BME280;64129;53.508;10.476;2022-12-18T07:26:30;102677.31;;;-7.57;74.54
75543;BME280;64129;53.508;10.476;2022-12-18T07:28:57;102687.00;;;-7.65;75.14
75543;BME280;64129;53.508;10.476;2022-12-18T07:31:24;102683.16;;;-7.60;74.81
75543;BME280;64129;53.508;10.476;2022-12-18T07:33:51;102696.13;;;-7.48;74.76
75543;BME280;64129;53.508;10.476;2022-12-18T07:36:18;102703.38;;;-7.54;74.89
75543;BME280;64129;53.508;10.476;2022-12-18T07:38:49;102705.13;;;-7.43;74.65
75543;BME280;64129;53.508;10.476;2022-12-18T07:41:16;102709.44;;;-7.53;74.43
75543;BME280;64129;53.508;10.476;2022-12-18T07:43:43;102712.50;;;-7.47;74.01
75543;BME280;64129;53.508;10.476;2022-12-18T07:46:11;102718.91;;;-7.42;74.56
75543;BME280;64129;53.508;10.476;2022-12-18T07:48:41;102715.72;;;-7.50;74.17
75543;BME280;64129;53.508;10.476;2022-12-18T07:51:08;102710.75;;;-7.37;74.61
75543;BME280;64129;53.508;10.476;2022-12-18T07:53:39;102705.72;;;-7.35;74.43
75543;BME280;64129;53.508;10.476;2022-12-18T07:56:09;102717.38;;;-7.40;74.45
75543;BME280;64129;53.508;10.476;2022-12-18T07:58:53;102714.66;;;-7.42;74.75
75543;BME280;64129;53.508;10.476;2022-12-18T08:01:19;102711.72;;;-7.46;75.16
75543;BME280;64129;53.508;10.476;2022-12-18T08:03:46;102721.13;;;-7.47;75.18
75543;BME280;64129;53.508;10.476;2022-12-18T08:06:12;102723.97;;;-7.44;74.98
75543;BME280;64129;53.508;10.476;2022-12-18T08:08:39;102719.16;;;-7.39;75.71
75543;BME280;64129;53.508;10.476;2022-12-18T08:11:07;102727.38;;;-7.23;75.11
75543;BME280;64129;53.508;10.476;2022-12-18T08:13:34;102725.88;;;-7.09;74.99
75543;BME280;64129;53.508;10.476;2022-12-18T08:16:05;102719.38;;;-7.04;75.06
75543;BME280;64129;53.508;10.476;2022-12-18T08:18:34;102724.47;;;-6.94;74.71
75543;BME280;64129;53.508;10.476;2022-12-18T08:21:11;102724.78;;;-7.01;74.67
75543;BME280;64129;53.508;10.476;2022-12-18T08:23:38;102721.72;;;-7.07;75.81
75543;BME280;64129;53.508;10.476;2022-12-18T08:26:07;102711.34;;;-6.97;75.74
75543;BME280;64129;53.508;10.476;2022-12-18T08:28:34;102706.41;;;-6.94;75.82
75543;BME280;64129;53.508;10.476;2022-12-18T08:31:01;102709.63;;;-6.86;75.79
75543;BME280;64129;53.508;10.476;2022-12-18T08:33:27;102709.63;;;-6.86;75.81
75543;BME280;64129;53.508;10.476;2022-12-18T08:35:54;102705.75;;;-6.36;73.93
75543;BME280;64129;53.508;10.476;2022-12-18T08:38:20;102703.22;;;-6.58;74.96
75543;BME280;64129;53.508;10.476;2022-12-18T08:40:47;102702.94;;;-6.73;75.63
75543;BME280;64129;53.508;10.476;2022-12-18T08:43:13;102700.97;;;-6.87;75.77
75543;BME280;64129;53.508;10.476;2022-12-18T08:45:58;102702.78;;;-6.86;76.05
75543;BME280;64129;53.508;10.476;2022-12-18T08:48:25;102697.28;;;-6.79;76.59
75543;BME280;64129;53.508;10.476;2022-12-18T08:50:59;102696.13;;;-6.61;76.46
75543;BME280;64129;53.508;10.476;2022-12-18T08:53:26;102693.78;;;-6.57;75.82
75543;BME280;64129;53.508;10.476;2022-12-18T08:55:56;102703.22;;;-6.58;76.10
75543;BME280;64129;53.508;10.476;2022-12-18T08:58:23;102707.44;;;-6.70;76.10
75543;BME280;64129;53.508;10.476;2022-12-18T09:00:49;102706.34;;;-6.62;76.23
75543;BME280;64129;53.508;10.476;2022-12-18T09:03:17;102702.06;;;-6.62;76.35
75543;BME280;64129;53.508;10.476;2022-12-18T09:05:47;102701.38;;;-6.71;76.51
75543;BME280;64129;53.508;10.476;2022-12-18T09:08:14;102698.09;;;-6.46;76.68
75543;BME280;64129;53.508;10.476;2022-12-18T09:10:42;102706.41;;;-6.39;76.18
75543;BME280;64129;53.508;10.476;2022-12-18T09:13:10;102705.75;;;-6.36;75.95
75543;BME280;64129;53.508;10.476;2022-12-18T09:15:42;102715.66;;;-6.31;76.24
75543;BME280;64129;53.508;10.476;2022-12-18T09:18:09;102701.94;;;-6.30;76.29
75543;BME280;64129;53.508;10.476;2022-12-18T09:20:36;102699.47;;;-6.28;76.06
75543;BME280;64129;53.508;10.476;2022-12-18T09:23:03;102686.03;;;-6.24;75.81
75543;BME280;64129;53.508;10.476;2022-12-18T09:25:30;102695.03;;;-6.19;75.75
75543;BME280;64129;53.508;10.476;2022-12-18T09:27:59;102704.13;;;-6.24;75.99
75543;BME280;64129;53.508;10.476;2022-12-18T09:30:26;102706.81;;;-6.22;75.53
75543;BME280;64129;53.508;10.476;2022-12-18T09:32:56;102697.44;;;-6.32;75.86
75543;BME280;64129;53.508;10.476;2022-12-18T09:35:22;102692.00;;;-6.13;76.10
75543;BME280;64129;53.508;10.476;2022-12-18T09:37:49;102691.94;;;-6.25;75.89
75543;BME280;64129;53.508;10.476;2022-12-18T09:40:21;102682.66;;;-6.23;76.44
75543;BME280;64129;53.508;10.476;2022-12-18T09:42:54;102692.34;;;-5.97;75.90
75543;BME280;64129;53.508;10.476;2022-12-18T09:45:23;102691.88;;;-6.03;75.56
75543;BME280;64129;53.508;10.476;2022-12-18T09:47:51;102689.50;;;-5.77;75.68
75543;BME280;64129;53.508;10.476;2022-12-18T09:50:32;102699.19;;;-5.74;76.00
75543;BME280;64129;53.508;10.476;2022-12-18T09:53:05;102703.66;;;-5.60;75.35
75543;BME280;64129;53.508;10.476;2022-12-18T09:55:36;102699.88;;;-5.53;75.53
75543;BME280;64129;53.508;10.476;2022-12-18T09:58:19;102701.78;;;-5.51;75.47
75543;BME280;64129;53.508;10.476;2022-12-18T10:00:46;102698.63;;;-5.47;75.43
75543;BME280;64129;53.508;10.476;2022-12-18T10:03:14;102690.28;;;-5.43;75.12
75543;BME280;64129;53.508;10.476;2022-12-18T10:19:54;102689.25;;;-4.85;73.40
75543;BME280;64129;53.508;10.476;2022-12-18T10:27:50;102701.25;;;-4.74;73.49
75543;BME280;64129;53.508;10.476;2022-12-18T10:30:21;102706.31;;;-4.75;73.39
75543;BME280;64129;53.508;10.476;2022-12-18T10:32:48;102718.22;;;-4.65;73.18
75543;BME280;64129;53.508;10.476;2022-12-18T10:35:25;102717.59;;;-4.75;73.77
75543;BME280;64129;53.508;10.476;2022-12-18T10:38:03;102714.03;;;-4.63;73.42
75543;BME280;64129;53.508;10.476;2022-12-18T10:40:30;102709.28;;;-4.32;77.83
75543;BME280;64129;53.508;10.476;2022-12-18T10:43:12;102710.50;;;-4.52;72.75
75543;BME280;64129;53.508;10.476;2022-12-18T10:45:39;102720.84;;;-4.52;73.32
75543;BME280;64129;53.508;10.476;2022-12-18T10:48:18;102709.75;;;-4.38;72.72
75543;BME280;64129;53.508;10.476;2022-12-18T10:50:48;102710.88;;;-4.34;73.38
75543;BME280;64129;53.508;10.476;2022-12-18T10:53:37;102711.59;;;-4.24;73.20
75543;BME280;64129;53.508;10.476;2022-12-18T10:56:05;102703.22;;;-4.20;72.40
75543;BME280;64129;53.508;10.476;2022-12-18T10:58:37;102705.81;;;-4.20;72.01
75543;BME280;64129;53.508;10.476;2022-12-18T11:01:13;102704.66;;;-4.12;72.71
75543;BME280;64129;53.508;10.476;2022-12-18T11:03:59;102695.97;;;-3.99;72.92
75543;BME280;64129;53.508;10.476;2022-12-18T11:06:27;102689.31;;;-3.95;71.75
75543;BME280;64129;53.508;10.476;2022-12-18T11:11:31;102688.19;;;-3.86;72.22
75543;BME280;64129;53.508;10.476;2022-12-18T11:13:59;102696.91;;;-3.72;71.49
75543;BME280;64129;53.508;10.476;2022-12-18T11:16:29;102704.69;;;-3.59;71.64
75543;BME280;64129;53.508;10.476;2022-12-18T11:19:20;102702.91;;;-3.73;71.44
75543;BME280;64129;53.508;10.476;2022-12-18T11:21:48;102703.38;;;-3.52;71.79
75543;BME280;64129;53.508;10.476;2022-12-18T11:24:35;102700.72;;;-3.67;71.52
75543;BME280;64129;53.508;10.476;2022-12-18T11:27:04;102701.09;;;-3.61;70.87
75543;BME280;64129;53.508;10.476;2022-12-18T11:29:38;102689.44;;;-3.00;70.67
75543;BME280;64129;53.508;10.476;2022-12-18T11:34:51;102680.47;;;-3.18;72.05
75543;BME280;64129;53.508;10.476;2022-12-18T11:37:21;102678.06;;;-3.15;71.79
75543;BME280;64129;53.508;10.476;2022-12-18T11:40:22;102678.81;;;-3.31;70.51
75543;BME280;64129;53.508;10.476;2022-12-18T11:43:02;102681.34;;;-3.46;70.96
75543;BME280;64129;53.508;10.476;2022-12-18T11:45:35;102663.19;;;-3.18;71.13
75543;BME280;64129;53.508;10.476;2022-12-18T11:48:21;102672.50;;;-3.21;71.17
75543;BME280;64129;53.508;10.476;2022-12-18T11:50:51;102672.88;;;-3.15;nan
75543;BME280;64129;53.508;10.476;2022-12-18T11:53:19;102665.69;;;-3.19;70.42
75543;BME280;64129;53.508;10.476;2022-12-18T12:01:44;102674.78;;;-2.85;70.50
75543;BME280;64129;53.508;10.476;2022-12-18T12:13:19;102656.88;;;-3.08;72.89
75543;BME280;64129;53.508;10.476;2022-12-18T12:21:07;102638.91;;;-3.18;71.70
75543;BME280;64129;53.508;10.476;2022-12-18T12:24:01;102620.25;;;-2.98;72.31
75543;BME280;64129;53.508;10.476;2022-12-18T12:26:57;102617.75;;;-2.96;71.83
75543;BME280;64129;53.508;10.476;2022-12-18T12:38:07;102608.69;;;-3.03;73.07
75543;BME280;64129;53.508;10.476;2022-12-18T12:40:49;102613.72;;;-3.19;72.94
75543;BME280;64129;53.508;10.476;2022-12-18T12:43:39;102603.94;;;-3.23;73.30
75543;BME280;64129;53.508;10.476;2022-12-18T12:46:11;102606.16;;;-3.29;73.54
75543;BME280;64129;53.508;10.476;2022-12-18T12:48:41;102600.13;;;-3.15;74.17
75543;BME280;64129;53.508;10.476;2022-12-18T12:51:14;102595.81;;;-3.15;73.89
75543;BME280;64129;53.508;10.476;2022-12-18T12:53:42;102590.97;;;-3.23;73.50
75543;BME280;64129;53.508;10.476;2022-12-18T12:56:11;102592.56;;;-3.25;73.42
75543;BME280;64129;53.508;10.476;2022-12-18T12:58:46;102576.34;;;-3.08;73.34
75543;BME280;64129;53.508;10.476;2022-12-18T13:01:40;102566.06;;;-3.20;73.86
75543;BME280;64129;53.508;10.476;2022-12-18T13:04:19;102562.47;;;-3.22;73.46
75543;BME280;64129;53.508;10.476;2022-12-18T13:06:56;102557.16;;;-3.10;74.46
75543;BME280;64129;53.508;10.476;2022-12-18T13:09:31;102549.06;;;-3.15;73.78
75543;BME280;64129;53.508;10.476;2022-12-18T13:12:10;102546.38;;;-3.16;74.30
75543;BME280;64129;53.508;10.476;2022-12-18T13:15:13;102544.75;;;-3.14;74.01
75543;BME280;64129;53.508;10.476;2022-12-18T13:17:46;102533.56;;;-3.13;73.92
75543;BME280;64129;53.508;10.476;2022-12-18T13:20:14;102538.16;;;-3.09;73.82
75543;BME280;64129;53.508;10.476;2022-12-18T13:22:47;102539.38;;;-3.17;73.60
75543;BME280;64129;53.508;10.476;2022-12-18T13:25:35;102540.97;;;-3.19;73.72
75543;BME280;64129;53.508;10.476;2022-12-18T13:41:25;102543.91;;;-3.00;74.25
75543;BME280;64129;53.508;10.476;2022-12-18T13:43:54;102537.66;;;-3.31;74.70
75543;BME280;64129;53.508;10.476;2022-12-18T13:46:45;102542.59;;;-3.21;74.35
75543;BME280;64129;53.508;10.476;2022-12-18T13:51:44;102543.19;;;-3.12;74.20
75543;BME280;64129;53.508;10.476;2022-12-18T13:54:21;102544.97;;;-3.11;74.12
75543;BME280;64129;53.508;10.476;2022-12-18T13:56:51;102539.00;;;-3.23;74.48
75543;BME280;64129;53.508;10.476;2022-12-18T13:59:23;102540.16;;;-3.33;74.30
75543;BME280;64129;53.508;10.476;2022-12-18T14:06:52;102545.88;;;-3.52;75.19
75543;BME280;64129;53.508;10.476;2022-12-18T14:09:26;102560.09;;;-3.47;75.60
75543;BME280;64129;53.508;10.476;2022-12-18T14:11:53;102559.38;;;-3.44;74.93
75543;BME280;64129;53.508;10.476;2022-12-18T14:14:42;102553.84;;;-3.35;74.61
75543;BME280;64129;53.508;10.476;2022-12-18T14:17:11;102563.69;;;-3.44;74.85
75543;BME280;64129;53.508;10.476;2022-12-18T14:19:41;102561.28;;;-3.55;75.37
75543;BME280;64129;53.508;10.476;2022-12-18T14:22:15;102572.03;;;-3.49;75.56
75543;BME280;64129;53.508;10.476;2022-12-18T14:24:42;102562.09;;;-3.56;75.41
75543;BME280;64129;53.508;10.476;2022-12-18T14:27:20;102551.22;;;-3.63;76.01
75543;BME280;64129;53.508;10.476;2022-12-18T14:29:47;102546.56;;;-3.69;75.82
75543;BME280;64129;53.508;10.476;2022-12-18T14:32:16;102549.75;;;-3.73;75.98